createdAt,value
2022-11-05T00:01:47.911Z,10.00
2022-11-05T00:04:33.177Z,10.00
2022-11-05T00:07:24.543Z,9.90
2022-11-05T00:09:54.200Z,9.90
2022-11-05T00:12:41.762Z,9.90
2022-11-05T00:15:27.211Z,9.90
2022-11-05T00:17:56.223Z,9.90
2022-11-05T00:20:22.746Z,9.90
2022-11-05T00:23:07.860Z,10.00
2022-11-05T00:25:34.607Z,9.90
2022-11-05T00:28:02.117Z,9.90
2022-11-05T00:30:29.006Z,9.90
2022-11-05T00:32:59.787Z,9.90
2022-11-05T00:35:26.305Z,10.00
2022-11-05T00:37:55.292Z,9.90
2022-11-05T00:40:21.889Z,10.00
2022-11-05T00:43:06.943Z,10.00
2022-11-05T00:45:37.664Z,10.00
2022-11-05T00:48:22.839Z,10.00
2022-11-05T00:50:49.360Z,10.00
2022-11-05T00:53:16.010Z,10.00
2022-11-05T00:55:43.894Z,10.00
2022-11-05T00:58:11.766Z,10.00
2022-11-05T01:00:41.574Z,10.00
2022-11-05T01:03:10.260Z,10.00
2022-11-05T01:05:44.787Z,10.00
2022-11-05T01:08:14.397Z,9.90
2022-11-05T01:10:44.777Z,9.90
2022-11-05T01:13:14.333Z,9.90
2022-11-05T01:15:43.769Z,9.90
2022-11-05T01:18:10.451Z,9.90
2022-11-05T01:20:39.547Z,9.90
2022-11-05T01:23:10.406Z,9.90
2022-11-05T01:25:42.668Z,10.00
2022-11-05T01:28:09.823Z,9.90
2022-11-05T01:30:39.057Z,9.90
2022-11-05T01:33:05.904Z,9.90
2022-11-05T01:35:32.466Z,9.90
2022-11-05T01:37:58.992Z,9.90
2022-11-05T01:40:25.813Z,9.90
2022-11-05T01:42:52.358Z,9.90
2022-11-05T01:45:18.983Z,9.90
2022-11-05T01:47:54.427Z,9.90
2022-11-05T01:50:23.930Z,9.80
2022-11-05T01:52:52.740Z,9.80
2022-11-05T01:55:25.758Z,9.80
2022-11-05T01:57:54.325Z,9.80
2022-11-05T02:00:20.885Z,9.80
2022-11-05T02:02:47.549Z,9.80
2022-11-05T02:05:14.725Z,9.80
2022-11-05T02:07:42.938Z,9.80
2022-11-05T02:10:13.636Z,9.80
2022-11-05T02:12:41.437Z,9.70
2022-11-05T02:15:11.091Z,9.70
2022-11-05T02:17:39.774Z,9.70
2022-11-05T02:20:12.244Z,9.70
2022-11-05T02:22:57.758Z,9.70
2022-11-05T02:25:42.928Z,9.70
2022-11-05T02:28:24.812Z,9.70
2022-11-05T02:31:04.680Z,9.70
2022-11-05T02:33:35.992Z,9.70
2022-11-05T02:36:21.346Z,9.60
2022-11-05T02:38:50.657Z,9.60
2022-11-05T02:41:42.917Z,9.60
2022-11-05T02:44:30.435Z,9.60
2022-11-05T02:46:59.128Z,9.60
2022-11-05T02:49:40.965Z,9.60
2022-11-05T02:52:21.241Z,9.60
2022-11-05T02:55:05.515Z,9.60
2022-11-05T02:57:34.634Z,9.60
2022-11-05T03:00:01.968Z,9.60
2022-11-05T03:02:28.717Z,9.60
2022-11-05T03:04:55.358Z,9.60
2022-11-05T03:07:22.155Z,9.60
2022-11-05T03:09:48.675Z,9.60
2022-11-05T03:12:27.350Z,9.60
2022-11-05T03:14:53.860Z,9.60
2022-11-05T03:17:25.528Z,9.60
2022-11-05T03:20:04.776Z,9.60
2022-11-05T03:22:35.524Z,9.60
2022-11-05T03:25:05.666Z,9.60
2022-11-05T03:27:34.972Z,9.60
2022-11-05T03:30:09.154Z,9.50
2022-11-05T03:32:38.054Z,9.50
2022-11-05T03:35:08.571Z,9.50
2022-11-05T03:37:36.130Z,9.50
2022-11-05T03:40:06.111Z,9.50
2022-11-05T03:42:33.804Z,9.50
2022-11-05T03:45:02.628Z,9.40
2022-11-05T03:47:32.548Z,9.40
2022-11-05T03:49:59.073Z,9.40
2022-11-05T03:52:31.763Z,9.40
2022-11-05T03:54:58.284Z,9.30
2022-11-05T03:57:36.454Z,9.30
2022-11-05T04:00:06.175Z,9.30
2022-11-05T04:02:32.893Z,9.20
2022-11-05T04:04:59.604Z,9.30
2022-11-05T04:07:44.988Z,9.30
2022-11-05T04:10:30.160Z,9.20
2022-11-05T04:13:15.247Z,9.30
2022-11-05T04:16:04.956Z,9.20
2022-11-05T04:18:34.123Z,9.30
2022-11-05T04:21:19.385Z,9.30
2022-11-05T04:24:04.343Z,9.30
2022-11-05T04:26:30.852Z,9.30
2022-11-05T04:29:16.150Z,9.20
2022-11-05T04:31:45.090Z,9.20
2022-11-05T04:34:11.597Z,9.20
2022-11-05T04:36:38.147Z,9.30
2022-11-05T04:39:04.670Z,9.30
2022-11-05T04:41:31.172Z,9.20
2022-11-05T04:44:00.128Z,9.20
2022-11-05T04:46:26.660Z,9.20
2022-11-05T04:48:53.150Z,9.20
2022-11-05T04:51:19.784Z,9.20
2022-11-05T04:53:46.321Z,9.10
2022-11-05T04:56:15.178Z,9.10
2022-11-05T04:58:42.030Z,9.00
2022-11-05T05:01:22.087Z,9.10
2022-11-05T05:03:54.210Z,9.10
2022-11-05T05:06:20.998Z,9.10
2022-11-05T05:08:48.410Z,9.10
2022-11-05T05:11:17.542Z,9.10
2022-11-05T05:13:44.370Z,9.00
2022-11-05T05:16:28.853Z,9.10
2022-11-05T05:18:55.425Z,9.00
2022-11-05T05:21:41.460Z,9.10
2022-11-05T05:24:08.734Z,9.10
2022-11-05T05:26:39.351Z,9.10
2022-11-05T05:29:09.282Z,9.00
2022-11-05T05:31:35.801Z,9.00
2022-11-05T05:34:02.402Z,9.00
2022-11-05T05:36:28.970Z,9.00
2022-11-05T05:38:55.517Z,9.00
2022-11-05T05:41:22.089Z,9.00
2022-11-05T05:43:50.833Z,9.00
2022-11-05T05:46:18.225Z,9.00
2022-11-05T05:48:48.450Z,9.00
2022-11-05T05:51:14.983Z,8.90
2022-11-05T05:53:41.513Z,8.90
2022-11-05T05:56:08.204Z,8.90
2022-11-05T05:58:36.198Z,8.90
2022-11-05T06:01:07.366Z,8.90
2022-11-05T06:03:34.487Z,8.80
2022-11-05T06:06:05.292Z,8.80
2022-11-05T06:08:31.994Z,8.80
2022-11-05T06:10:59.147Z,8.80
2022-11-05T06:13:26.227Z,8.70
2022-11-05T06:15:55.147Z,8.70
2022-11-05T06:18:21.672Z,8.60
2022-11-05T06:20:50.660Z,8.60
2022-11-05T06:23:19.414Z,8.60
2022-11-05T06:25:45.949Z,8.60
2022-11-05T06:28:14.856Z,8.60
2022-11-05T06:30:41.414Z,8.50
2022-11-05T06:33:08.052Z,8.40
2022-11-05T06:35:34.664Z,8.40
2022-11-05T06:38:01.686Z,8.40
2022-11-05T06:40:28.767Z,8.40
2022-11-05T06:42:55.700Z,8.40
2022-11-05T06:45:22.303Z,8.40
2022-11-05T06:47:54.449Z,8.40
2022-11-05T06:50:20.964Z,8.40
2022-11-05T06:52:52.708Z,8.40
2022-11-05T06:55:19.228Z,8.40
2022-11-05T06:57:45.718Z,8.40
2022-11-05T07:00:12.435Z,8.30
2022-11-05T07:02:38.964Z,8.30
2022-11-05T07:05:10.966Z,8.20
2022-11-05T07:07:38.001Z,8.30
2022-11-05T07:10:05.662Z,8.30
2022-11-05T07:12:32.187Z,8.30
2022-11-05T07:14:58.879Z,8.20
2022-11-05T07:17:27.791Z,8.30
2022-11-05T07:19:54.497Z,8.30
2022-11-05T07:22:21.021Z,8.30
2022-11-05T07:24:49.301Z,8.30
2022-11-05T07:27:16.110Z,8.20
2022-11-05T07:29:42.834Z,8.30
2022-11-05T07:32:11.871Z,8.20
2022-11-05T07:34:40.551Z,8.20
2022-11-05T07:37:07.080Z,8.20
2022-11-05T07:39:36.074Z,8.20
2022-11-05T07:42:02.606Z,8.20
2022-11-05T07:44:29.105Z,8.20
2022-11-05T07:46:57.834Z,8.20
2022-11-05T07:49:24.360Z,8.20
2022-11-05T07:51:51.066Z,8.10
2022-11-05T07:54:17.691Z,8.20
2022-11-05T07:56:48.664Z,8.20
2022-11-05T07:59:15.197Z,8.10
2022-11-05T08:01:44.538Z,8.10
2022-11-05T08:04:13.807Z,8.10
2022-11-05T08:06:40.380Z,8.10
2022-11-05T08:09:06.895Z,8.10
2022-11-05T08:11:35.875Z,8.20
2022-11-05T08:14:02.571Z,8.20
2022-11-05T08:16:29.164Z,8.30
2022-11-05T08:18:55.739Z,8.30
2022-11-05T08:21:22.275Z,8.40
2022-11-05T08:23:48.879Z,8.40
2022-11-05T08:26:15.400Z,8.40
2022-11-05T08:28:41.937Z,8.50
2022-11-05T08:31:08.541Z,8.60
2022-11-05T08:33:35.103Z,8.60
2022-11-05T08:36:02.059Z,8.60
2022-11-05T08:38:31.232Z,8.60
2022-11-05T08:40:58.191Z,8.70
2022-11-05T08:43:25.199Z,8.80
2022-11-05T08:45:52.031Z,8.90
2022-11-05T08:48:18.702Z,8.90
2022-11-05T08:50:46.129Z,9.10
2022-11-05T08:53:13.688Z,9.10
2022-11-05T08:55:40.447Z,9.20
2022-11-05T08:58:10.583Z,9.30
2022-11-05T09:00:39.540Z,9.40
2022-11-05T09:03:07.550Z,9.50
2022-11-05T09:05:38.221Z,9.60
2022-11-05T09:08:08.825Z,9.70
2022-11-05T09:10:38.140Z,9.80
2022-11-05T09:13:04.932Z,9.90
2022-11-05T09:15:32.036Z,10.00
2022-11-05T09:17:58.679Z,10.10
2022-11-05T09:20:25.255Z,10.20
2022-11-05T09:22:51.835Z,10.30
2022-11-05T09:25:18.395Z,10.40
2022-11-05T09:27:45.042Z,10.50
2022-11-05T09:30:12.860Z,10.60
2022-11-05T09:32:39.614Z,10.60
2022-11-05T09:35:09.149Z,10.70
2022-11-05T09:37:36.444Z,10.70
2022-11-05T09:40:03.076Z,10.80
2022-11-05T09:42:31.532Z,10.90
2022-11-05T09:45:01.295Z,11.00
2022-11-05T09:47:30.699Z,11.00
2022-11-05T09:49:58.918Z,11.10
2022-11-05T09:52:29.303Z,11.10
2022-11-05T09:54:58.478Z,11.10
2022-11-05T09:57:25.035Z,11.10
2022-11-05T09:59:53.622Z,11.10
2022-11-05T10:02:26.897Z,11.20
2022-11-05T10:04:57.153Z,11.20
2022-11-05T10:07:28.125Z,11.20
2022-11-05T10:10:01.975Z,11.20
2022-11-05T10:12:31.665Z,11.10
2022-11-05T10:15:04.726Z,11.10
2022-11-05T10:17:37.857Z,11.10
2022-11-05T10:20:24.585Z,11.10
2022-11-05T10:22:56.182Z,11.10
2022-11-05T10:25:27.367Z,11.10
2022-11-05T10:27:55.103Z,11.10
2022-11-05T10:30:21.976Z,11.10
2022-11-05T10:32:51.752Z,11.20
2022-11-05T10:35:22.385Z,11.20
2022-11-05T10:37:53.588Z,11.20
2022-11-05T10:40:27.518Z,11.30
2022-11-05T10:43:00.765Z,11.30
2022-11-05T10:45:42.553Z,11.40
2022-11-05T10:48:20.549Z,11.50
2022-11-05T10:50:47.392Z,11.60
2022-11-05T10:53:20.387Z,11.60
2022-11-05T10:55:51.124Z,11.60
2022-11-05T10:58:17.630Z,11.60
2022-11-05T11:00:45.212Z,11.70
2022-11-05T11:03:30.509Z,11.70
2022-11-05T11:06:01.082Z,11.70
2022-11-05T11:08:27.807Z,11.80
2022-11-05T11:10:58.760Z,11.90
2022-11-05T11:13:27.650Z,12.00
2022-11-05T11:15:55.092Z,12.10
2022-11-05T11:18:33.509Z,12.10
2022-11-05T11:21:09.761Z,12.20
2022-11-05T11:23:37.792Z,12.20
2022-11-05T11:26:05.327Z,12.20
2022-11-05T11:28:43.959Z,12.30
2022-11-05T11:31:16.811Z,12.30
2022-11-05T11:33:49.080Z,12.20
2022-11-05T11:36:18.341Z,12.20
2022-11-05T11:38:45.439Z,12.20
2022-11-05T11:41:30.785Z,12.30
2022-11-05T11:44:05.242Z,12.30
2022-11-05T11:46:33.215Z,12.30
2022-11-05T11:49:00.108Z,12.40
2022-11-05T11:51:31.010Z,12.40
2022-11-05T11:54:01.195Z,12.50
2022-11-05T11:56:28.880Z,12.50
2022-11-05T11:58:56.933Z,12.50
2022-11-05T12:01:23.461Z,12.50
2022-11-05T12:07:31.922Z,12.40
2022-11-05T12:10:16.559Z,12.50
2022-11-05T12:12:45.486Z,12.50
2022-11-05T12:15:11.998Z,12.50
2022-11-05T12:17:38.611Z,12.50
2022-11-05T12:20:15.001Z,12.60
2022-11-05T12:23:01.800Z,12.60
2022-11-05T12:25:37.207Z,12.70
2022-11-05T12:28:03.718Z,12.60
2022-11-05T12:30:37.077Z,12.70
2022-11-05T12:33:26.125Z,12.70
2022-11-05T12:35:57.616Z,12.80
2022-11-05T12:38:43.360Z,12.80
2022-11-05T12:41:19.068Z,12.80
2022-11-05T12:44:04.115Z,12.70
2022-11-05T12:46:49.321Z,12.70
2022-11-05T12:49:34.728Z,12.60
2022-11-05T12:52:04.235Z,12.60
2022-11-05T12:54:49.521Z,12.50
2022-11-05T12:57:16.421Z,12.50
2022-11-05T12:59:50.752Z,12.50
2022-11-05T13:02:20.469Z,12.40
2022-11-05T13:04:51.979Z,12.40
2022-11-05T13:07:24.720Z,12.40
2022-11-05T13:10:00.968Z,12.30
2022-11-05T13:12:30.012Z,12.30
2022-11-05T13:15:01.209Z,12.20
2022-11-05T13:17:50.900Z,12.20
2022-11-05T13:20:28.995Z,12.20
2022-11-05T13:23:00.666Z,12.20
2022-11-05T13:25:31.625Z,12.20
2022-11-05T13:28:02.437Z,12.20
2022-11-05T13:30:31.556Z,12.20
2022-11-05T13:33:00.660Z,12.20
2022-11-05T13:36:16.576Z,12.20
2022-11-05T13:39:03.559Z,12.30
2022-11-05T13:41:33.065Z,12.30
2022-11-05T13:44:26.140Z,12.30
2022-11-05T13:47:13.446Z,12.20
2022-11-05T13:49:43.054Z,12.20
2022-11-05T13:52:12.005Z,12.20
2022-11-05T13:54:41.426Z,12.20
2022-11-05T13:57:10.924Z,12.20
2022-11-05T13:59:43.429Z,12.20
2022-11-05T14:02:12.998Z,12.10
2022-11-05T14:04:41.909Z,12.10
2022-11-05T14:07:16.512Z,12.10
2022-11-05T14:09:43.613Z,12.00
2022-11-05T14:12:28.469Z,12.00
2022-11-05T14:15:00.063Z,12.00
2022-11-05T14:17:28.378Z,12.00
2022-11-05T14:20:07.035Z,12.00
2022-11-05T14:22:33.545Z,12.00
2022-11-05T14:25:00.535Z,11.90
2022-11-05T14:27:33.383Z,12.00
2022-11-05T14:30:00.373Z,12.00
2022-11-05T14:32:41.184Z,12.00
2022-11-05T14:35:16.540Z,12.00
2022-11-05T14:37:55.805Z,12.00
2022-11-05T14:40:22.397Z,12.00
2022-11-05T14:42:53.911Z,12.00
2022-11-05T14:45:27.001Z,12.00
2022-11-05T14:47:58.155Z,12.00
2022-11-05T14:50:35.816Z,12.00
2022-11-05T14:53:25.008Z,11.90
2022-11-05T14:56:09.370Z,11.90
2022-11-05T14:58:39.859Z,12.00
2022-11-05T15:01:08.146Z,11.90
2022-11-05T15:03:34.775Z,11.90
2022-11-05T15:06:16.546Z,11.90
2022-11-05T15:08:49.161Z,11.80
2022-11-05T15:11:21.665Z,11.80
2022-11-05T15:13:58.316Z,11.80
2022-11-05T15:16:26.094Z,11.70
2022-11-05T15:18:53.945Z,11.70
2022-11-05T15:21:21.093Z,11.60
2022-11-05T15:23:48.757Z,11.60
2022-11-05T15:26:23.765Z,11.50
2022-11-05T15:28:51.622Z,11.40
2022-11-05T15:31:26.405Z,11.40
2022-11-05T15:34:09.096Z,11.40
2022-11-05T15:36:35.649Z,11.30
2022-11-05T15:39:29.141Z,11.30
2022-11-05T15:41:56.361Z,11.20
2022-11-05T15:44:23.780Z,11.20
2022-11-05T15:47:04.029Z,11.10
2022-11-05T15:49:32.998Z,11.00
2022-11-05T15:51:59.586Z,11.00
2022-11-05T15:54:31.415Z,11.00
2022-11-05T15:56:59.776Z,11.00
2022-11-05T15:59:27.424Z,11.00
2022-11-05T16:01:56.648Z,10.80
2022-11-05T16:04:23.346Z,10.80
2022-11-05T16:06:51.247Z,10.80
2022-11-05T16:09:22.132Z,10.80
2022-11-05T16:11:48.660Z,10.70
2022-11-05T16:14:17.181Z,10.70
2022-11-05T16:16:46.722Z,10.60
2022-11-05T16:19:35.577Z,10.60
2022-11-05T16:22:08.456Z,10.50
2022-11-05T16:24:34.993Z,10.40
2022-11-05T16:27:03.790Z,10.30
2022-11-05T16:29:30.493Z,10.30
2022-11-05T16:31:57.514Z,10.30
2022-11-05T16:34:28.272Z,10.20
2022-11-05T16:36:56.282Z,10.20
2022-11-05T16:39:23.077Z,10.20
2022-11-05T16:41:49.622Z,10.10
2022-11-05T16:44:18.372Z,10.10
2022-11-05T16:46:47.086Z,10.20
2022-11-05T16:49:13.626Z,10.10
2022-11-05T16:51:40.190Z,10.10
2022-11-05T16:54:06.739Z,10.10
2022-11-05T16:56:33.497Z,10.10
2022-11-05T16:59:00.249Z,10.10
2022-11-05T17:01:27.941Z,10.10
2022-11-05T17:03:56.995Z,10.10
2022-11-05T17:06:23.525Z,10.00
2022-11-05T17:08:50.125Z,10.00
2022-11-05T17:11:20.827Z,10.00
2022-11-05T17:13:47.734Z,9.90
2022-11-05T17:16:15.568Z,9.90
2022-11-05T17:18:42.473Z,9.80
2022-11-05T17:21:09.838Z,9.80
2022-11-05T17:23:36.774Z,9.80
2022-11-05T17:26:08.257Z,9.80
2022-11-05T17:28:37.806Z,9.70
2022-11-05T17:31:07.771Z,9.70
2022-11-05T17:33:34.717Z,9.70
2022-11-05T17:36:05.345Z,9.60
2022-11-05T17:38:31.869Z,9.70
2022-11-05T17:41:00.509Z,9.60
2022-11-05T17:43:27.330Z,9.70
2022-11-05T17:46:01.517Z,9.70
2022-11-05T17:48:29.755Z,9.70
2022-11-05T17:50:56.973Z,9.70
2022-11-05T17:53:23.497Z,9.60
2022-11-05T17:55:50.026Z,9.60
2022-11-05T17:58:16.629Z,9.60
2022-11-05T18:00:44.619Z,9.60
2022-11-05T18:03:12.085Z,9.60
2022-11-05T18:05:39.939Z,9.60
2022-11-05T18:08:09.372Z,9.60
2022-11-05T18:10:36.895Z,9.50
2022-11-05T18:13:03.598Z,9.50
2022-11-05T18:15:30.232Z,9.50
2022-11-05T18:17:56.732Z,9.50
2022-11-05T18:20:23.274Z,9.50
2022-11-05T18:22:50.253Z,9.50
2022-11-05T18:25:19.314Z,9.50
2022-11-05T18:27:45.884Z,9.50
2022-11-05T18:30:15.254Z,9.40
2022-11-05T18:32:42.556Z,9.40
2022-11-05T18:35:09.219Z,9.30
2022-11-05T18:37:37.291Z,9.40
2022-11-05T18:40:06.265Z,9.30
2022-11-05T18:42:32.793Z,9.30
2022-11-05T18:44:59.343Z,9.30
2022-11-05T18:47:25.881Z,9.30
2022-11-05T18:49:52.393Z,9.30
2022-11-05T18:52:18.983Z,9.40
2022-11-05T18:54:45.843Z,9.30
2022-11-05T18:57:12.345Z,9.40
2022-11-05T18:59:42.059Z,9.30
2022-11-05T19:02:10.742Z,9.30
2022-11-05T19:04:37.872Z,9.30
2022-11-05T19:07:05.870Z,9.20
2022-11-05T19:09:35.717Z,9.20
2022-11-05T19:12:02.781Z,9.20
2022-11-05T19:14:31.442Z,9.20
2022-11-05T19:16:58.717Z,9.30
2022-11-05T19:19:25.273Z,9.30
2022-11-05T19:21:52.371Z,9.30
2022-11-05T19:24:19.150Z,9.20
2022-11-05T19:26:46.632Z,9.30
2022-11-05T19:29:13.344Z,9.30
2022-11-05T19:31:42.308Z,9.20
2022-11-05T19:34:08.988Z,9.30
2022-11-05T19:36:35.859Z,9.30
2022-11-05T19:39:08.645Z,9.30
2022-11-05T19:41:35.182Z,9.30
2022-11-05T19:44:01.947Z,9.20
2022-11-05T19:46:29.244Z,9.30
2022-11-05T19:48:55.782Z,9.20
2022-11-05T19:51:23.873Z,9.20
2022-11-05T19:53:52.595Z,9.20
2022-11-05T19:56:21.679Z,9.20
2022-11-05T19:58:48.987Z,9.20
2022-11-05T20:01:16.361Z,9.20
2022-11-05T20:03:43.158Z,9.10
2022-11-05T20:06:13.379Z,9.10
2022-11-05T20:09:06.703Z,9.00
2022-11-05T20:11:27.116Z,8.90
2022-11-05T20:13:56.043Z,8.70
2022-11-05T20:16:27.002Z,8.70
2022-11-05T20:18:53.862Z,8.70
2022-11-05T20:21:22.643Z,8.70
2022-11-05T20:23:49.173Z,8.70
2022-11-05T20:26:16.162Z,8.70
2022-11-05T20:28:43.759Z,8.70
2022-11-05T20:31:12.004Z,8.70
2022-11-05T20:33:38.665Z,8.80
2022-11-05T20:36:06.615Z,8.80
2022-11-05T20:38:33.328Z,8.80
2022-11-05T20:41:00.108Z,8.70
2022-11-05T20:43:30.284Z,8.70
2022-11-05T20:46:00.044Z,8.70
2022-11-05T20:48:32.087Z,8.70
2022-11-05T20:50:58.992Z,8.70
2022-11-05T20:53:25.992Z,8.70
2022-11-05T20:55:52.696Z,8.70
2022-11-05T20:58:19.214Z,8.70
2022-11-05T21:00:53.818Z,8.70
2022-11-05T21:03:22.548Z,8.70
2022-11-05T21:05:50.227Z,8.60
2022-11-05T21:08:16.895Z,8.70
2022-11-05T21:10:50.005Z,8.70
2022-11-05T21:13:20.154Z,8.70
2022-11-05T21:15:50.876Z,8.70
2022-11-05T21:18:23.124Z,8.60
2022-11-05T21:20:49.864Z,8.70
2022-11-05T21:23:18.791Z,8.70
2022-11-05T21:25:45.708Z,8.70
2022-11-05T21:28:15.472Z,8.70
2022-11-05T21:30:45.138Z,8.70
2022-11-05T21:33:13.099Z,8.60
2022-11-05T21:35:41.040Z,8.70
2022-11-05T21:38:07.716Z,8.60
2022-11-05T21:40:34.348Z,8.70
2022-11-05T21:43:01.107Z,8.70
2022-11-05T21:45:30.133Z,8.60
2022-11-05T21:47:56.652Z,8.60
2022-11-05T21:50:43.195Z,8.50
2022-11-05T21:53:37.408Z,8.50
2022-11-05T21:56:26.728Z,8.50
2022-11-05T21:59:12.003Z,8.40
2022-11-05T22:01:38.585Z,8.40
2022-11-05T22:04:05.202Z,8.40
2022-11-05T22:06:34.264Z,8.40
2022-11-05T22:09:00.877Z,8.40
2022-11-05T22:11:27.386Z,8.40
2022-11-05T22:13:53.920Z,8.40
2022-11-05T22:16:20.459Z,8.40
2022-11-05T22:18:46.980Z,8.40
2022-11-05T22:21:17.758Z,8.40
2022-11-05T22:23:44.325Z,8.40
2022-11-05T22:26:16.428Z,8.40
2022-11-05T22:28:45.608Z,8.40
2022-11-05T22:31:13.289Z,8.40
2022-11-05T22:33:39.908Z,8.40
2022-11-05T22:36:06.721Z,8.40
2022-11-05T22:38:33.401Z,8.40
2022-11-05T22:41:05.985Z,8.30
2022-11-05T22:43:32.868Z,8.40
2022-11-05T22:46:05.638Z,8.40
2022-11-05T22:48:32.411Z,8.40
2022-11-05T22:51:02.905Z,8.40
2022-11-05T22:53:29.609Z,8.40
2022-11-05T22:55:56.159Z,8.30
2022-11-05T22:58:22.863Z,8.40
2022-11-05T23:00:49.396Z,8.30
2022-11-05T23:03:15.933Z,8.30
2022-11-05T23:05:42.476Z,8.30
2022-11-05T23:08:28.107Z,8.30
2022-11-05T23:11:13.426Z,8.20
2022-11-05T23:13:39.947Z,8.20
2022-11-05T23:16:25.262Z,8.20
2022-11-05T23:19:10.399Z,8.10
2022-11-05T23:21:55.776Z,8.10
2022-11-05T23:24:24.526Z,8.10
2022-11-05T23:26:53.918Z,8.10
2022-11-05T23:29:28.594Z,8.10
2022-11-05T23:32:13.781Z,8.10
2022-11-05T23:34:42.738Z,8.00
2022-11-05T23:37:28.258Z,7.90
2022-11-05T23:39:54.825Z,8.00
2022-11-05T23:42:40.078Z,8.00
2022-11-05T23:45:25.689Z,8.00
2022-11-05T23:48:11.205Z,7.90
2022-11-05T23:50:39.991Z,7.90
2022-11-05T23:53:07.316Z,7.80
2022-11-05T23:55:33.877Z,7.70
2022-11-05T23:58:00.433Z,7.70
